Time;durP1;ratioP1;P1;durP2;ratioP2;P2;SDS_P1;SDS_P2;PMS_P1;PMS_P2;Temp;Humidity;BMP_temperature;BMP_pressure;BME280_temperature;BME280_humidity;BME280_pressure;Samples;Min_cycle;Max_cycle;Signal;HPM_P1;HPM_P2
2023/01/01 00:01:15;;;;;;;6.20;4.03;;;14.80;99.50;;;;;;4989469;28;20356;-76
2023/01/01 00:03:41;;;;;;;6.30;5.23;;;14.90;99.20;;;;;;4973140;28;20196;-76
2023/01/01 00:06:09;;;;;;;7.00;5.13;;;14.90;99.30;;;;;;4972580;28;20479;-76
2023/01/01 00:08:35;;;;;;;8.97;5.77;;;14.80;99.90;;;;;;4990266;28;20465;-76
2023/01/01 00:11:02;;;;;;;9.00;6.30;;;14.80;99.60;;;;;;4990087;28;20452;-76
2023/01/01 00:13:28;;;;;;;9.57;6.43;;;14.80;99.50;;;;;;4973023;28;20997;-76
2023/01/01 00:15:53;;;;;;;9.77;6.50;;;14.70;99.40;;;;;;4990289;28;20429;-78
2023/01/01 00:18:19;;;;;;;11.50;7.20;;;15.00;98.50;;;;;;4990408;28;20460;-77
2023/01/01 00:20:45;;;;;;;11.03;7.17;;;15.00;98.60;;;;;;4989033;28;20496;-79
2023/01/01 00:23:11;;;;;;;11.30;6.90;;;15.00;98.70;;;;;;4990274;28;20201;-78
2023/01/01 00:25:39;;;;;;;8.93;6.87;;;14.90;98.80;;;;;;4988931;28;21055;-78
2023/01/01 00:28:05;;;;;;;10.23;7.30;;;14.80;98.90;;;;;;4988928;28;20948;-79
2023/01/01 00:30:31;;;;;;;16.20;5.00;;;14.80;99.00;;;;;;4972253;28;20476;-78
2023/01/01 00:32:57;;;;;;;7.17;4.23;;;15.00;98.30;;;;;;4989947;28;20471;-77
2023/01/01 00:35:24;;;;;;;9.17;6.10;;;15.10;97.90;;;;;;4988694;28;20444;-78
2023/01/01 00:37:50;;;;;;;6.13;4.70;;;15.10;97.80;;;;;;4988721;28;20628;-78
2023/01/01 00:40:15;;;;;;;8.70;4.50;;;15.10;97.80;;;;;;4972431;28;20453;-81
2023/01/01 00:42:41;;;;;;;5.20;4.00;;;15.10;97.90;;;;;;4989612;28;20186;-77
2023/01/01 00:45:07;;;;;;;7.20;4.43;;;15.20;97.60;;;;;;4989536;28;20217;-77
2023/01/01 00:47:33;;;;;;;6.53;4.30;;;15.20;97.60;;;;;;4989352;28;20211;-77
2023/01/01 00:49:58;;;;;;;9.87;7.13;;;15.20;97.60;;;;;;4991855;28;20453;-79
2023/01/01 00:52:24;;;;;;;9.73;4.50;;;15.30;97.60;;;;;;4994048;28;20659;-78
2023/01/01 00:54:49;;;;;;;3.80;3.23;;;15.10;97.70;;;;;;4992467;28;20241;-79
2023/01/01 00:57:15;;;;;;;3.60;2.30;;;15.20;97.50;;;;;;4993816;28;20780;-80
2023/01/01 00:59:41;;;;;;;3.30;2.60;;;15.20;97.50;;;;;;4993370;28;20247;-78
2023/01/01 01:02:06;;;;;;;3.40;2.50;;;15.30;97.30;;;;;;4992198;28;20218;-79
2023/01/01 01:04:32;;;;;;;5.13;3.20;;;15.30;97.00;;;;;;4993425;28;20939;-78
2023/01/01 01:06:57;;;;;;;3.37;2.13;;;15.50;96.70;;;;;;4991879;28;20258;-78
2023/01/01 01:09:23;;;;;;;1.80;1.70;;;15.50;96.50;;;;;;4993106;28;20863;-79
2023/01/01 01:11:49;;;;;;;3.43;2.30;;;15.60;96.40;;;;;;4992081;28;20677;-78
2023/01/01 01:14:14;;;;;;;2.43;2.00;;;15.70;96.00;;;;;;4975934;28;20401;-78
2023/01/01 01:16:40;;;;;;;2.40;1.70;;;15.90;95.60;;;;;;4975656;28;20619;-80
2023/01/01 01:19:06;;;;;;;2.50;1.80;;;15.80;95.60;;;;;;4975867;28;20204;-79
2023/01/01 01:21:33;;;;;;;3.40;2.57;;;15.90;95.50;;;;;;4976267;28;20190;-78
2023/01/01 01:24:01;;;;;;;2.67;1.93;;;15.90;95.70;;;;;;4993131;28;20448;-81
2023/01/01 01:26:29;;;;;;;1.70;1.53;;;16.00;95.10;;;;;;4991553;28;20552;-78
2023/01/01 01:28:55;;;;;;;2.30;1.30;;;16.00;95.10;;;;;;4992989;28;20422;-78
2023/01/01 01:31:22;;;;;;;2.00;1.80;;;16.00;95.10;;;;;;4993002;28;20517;-80
2023/01/01 01:33:49;;;;;;;2.53;1.83;;;16.00;94.90;;;;;;4975385;28;21084;-79
2023/01/01 01:36:16;;;;;;;2.03;1.20;;;15.90;95.20;;;;;;4993006;28;20431;-78
2023/01/01 01:38:42;;;;;;;2.10;1.43;;;15.90;95.40;;;;;;4991208;28;20444;-78
2023/01/01 01:41:09;;;;;;;1.60;1.50;;;15.90;95.40;;;;;;4993043;28;20434;-79
2023/01/01 01:43:35;;;;;;;2.97;1.27;;;16.00;95.30;;;;;;4976383;28;20506;-79
2023/01/01 01:46:14;;;;;;;1.60;1.47;;;16.10;94.90;;;;;;4993771;28;20552;-80
2023/01/01 01:48:43;;;;;;;1.80;1.17;;;16.10;95.00;;;;;;4993214;28;20165;-80
2023/01/01 01:51:11;;;;;;;3.53;2.40;;;16.00;94.40;;;;;;4975820;28;20445;-81
2023/01/01 01:53:42;;;;;;;2.10;1.37;;;16.10;95.10;;;;;;4992788;28;20496;-80
2023/01/01 01:56:13;;;;;;;1.43;1.10;;;16.00;95.00;;;;;;4992905;28;20431;-79
2023/01/01 01:58:38;;;;;;;1.63;1.37;;;16.00;95.20;;;;;;4973932;28;20528;-80
2023/01/01 02:01:04;;;;;;;1.27;1.00;;;15.90;95.20;;;;;;4974088;28;20924;-79
2023/01/01 02:03:54;;;;;;;5.47;2.27;;;16.00;95.00;;;;;;4974834;28;20194;-78
2023/01/01 02:06:20;;;;;;;1.43;1.30;;;16.10;94.80;;;;;;4974302;28;20454;-78
2023/01/01 02:08:47;;;;;;;1.93;1.10;;;16.10;94.80;;;;;;4974193;28;20483;-77
2023/01/01 02:11:13;;;;;;;1.57;1.20;;;16.10;94.80;;;;;;4991468;28;20949;-79
2023/01/01 02:13:39;;;;;;;2.50;1.00;;;16.20;94.50;;;;;;4991689;28;20435;-76
2023/01/01 02:16:10;;;;;;;2.77;1.37;;;16.10;94.60;;;;;;4991534;28;20182;-77
2023/01/01 02:18:59;;;;;;;1.63;1.30;;;16.10;94.90;;;;;;4991507;28;20321;-78
2023/01/01 02:21:30;;;;;;;1.50;1.07;;;16.00;94.60;;;;;;4991523;28;20426;-76
2023/01/01 02:24:14;;;;;;;1.87;1.67;;;16.00;94.70;;;;;;4991543;28;20422;-78
2023/01/01 02:26:55;;;;;;;2.50;2.20;;;15.90;94.80;;;;;;4991067;28;20463;-78
2023/01/01 02:29:28;;;;;;;4.40;2.20;;;15.90;94.90;;;;;;4973660;28;20474;-76
2023/01/01 02:32:07;;;;;;;5.53;2.87;;;15.70;95.50;;;;;;4990973;28;20434;-77
2023/01/01 02:34:43;;;;;;;4.80;2.67;;;15.60;95.60;;;;;;4990898;28;20423;-76
2023/01/01 02:37:13;;;;;;;5.70;3.30;;;15.60;95.90;;;;;;4991110;28;20532;-77
2023/01/01 02:39:51;;;;;;;3.73;3.03;;;15.40;96.30;;;;;;4990433;28;20456;-77
2023/01/01 02:42:18;;;;;;;5.87;3.73;;;15.20;96.70;;;;;;4991099;28;20463;-78
2023/01/01 02:44:47;;;;;;;6.53;2.90;;;15.20;96.80;;;;;;4989963;28;20429;-77
2023/01/01 02:47:17;;;;;;;6.00;3.80;;;15.10;96.90;;;;;;4973822;28;20930;-81
2023/01/01 02:49:50;;;;;;;6.73;3.10;;;15.10;96.80;;;;;;4973640;28;20459;-78
2023/01/01 02:52:37;;;;;;;4.47;3.30;;;15.10;96.80;;;;;;4990657;28;20444;-79
2023/01/01 02:55:28;;;;;;;3.87;2.80;;;15.00;96.90;;;;;;4992255;28;20403;-79
2023/01/01 03:01:19;;;;;;;3.70;2.70;;;14.90;96.80;;;;;;4990911;28;20427;-78
2023/01/01 03:03:58;;;;;;;6.33;2.93;;;14.90;97.00;;;;;;4990951;28;20465;-80
2023/01/01 03:07:12;;;;;;;3.23;2.47;;;14.90;96.70;;;;;;4973566;28;20460;-82
2023/01/01 03:09:50;;;;;;;4.93;2.83;;;15.00;96.20;;;;;;4970516;28;20449;-81
2023/01/01 03:12:38;;;;;;;7.00;3.10;;;15.00;96.50;;;;;;4991039;28;20456;-79
2023/01/01 03:15:42;;;;;;;4.97;3.60;;;15.10;96.00;;;;;;4991412;28;20540;-77
2023/01/01 03:18:46;;;;;;;4.67;3.30;;;15.10;95.90;;;;;;4975456;28;20945;-78
2023/01/01 03:21:17;;;;;;;3.30;2.77;;;15.00;96.20;;;;;;4990609;28;20956;-77
2023/01/01 03:23:49;;;;;;;3.23;2.60;;;14.90;96.30;;;;;;4973336;28;20418;-78
2023/01/01 03:26:18;;;;;;;4.50;2.90;;;15.00;96.30;;;;;;4990758;28;20465;-77
2023/01/01 03:28:49;;;;;;;3.90;2.87;;;14.90;96.60;;;;;;4990700;28;20913;-76
2023/01/01 03:31:19;;;;;;;3.47;2.70;;;14.90;96.50;;;;;;4990554;28;20452;-77
2023/01/01 03:33:55;;;;;;;5.17;2.53;;;14.80;96.50;;;;;;4990193;28;20422;-77
2023/01/01 03:36:27;;;;;;;7.17;2.73;;;14.80;96.80;;;;;;4972775;28;20912;-77
2023/01/01 03:39:11;;;;;;;4.73;3.13;;;14.70;96.90;;;;;;4990400;28;20417;-78
2023/01/01 03:41:41;;;;;;;3.13;2.70;;;14.70;97.10;;;;;;4990406;28;20433;-78
2023/01/01 03:44:09;;;;;;;3.00;2.40;;;14.70;97.20;;;;;;4989248;28;20512;-78
2023/01/01 03:46:36;;;;;;;2.53;2.20;;;14.70;97.10;;;;;;4989331;28;20464;-79
2023/01/01 03:49:05;;;;;;;4.17;2.47;;;14.80;96.80;;;;;;4990222;28;20507;-79
2023/01/01 03:51:40;;;;;;;6.90;2.77;;;14.80;96.80;;;;;;4974377;28;20471;-79
2023/01/01 03:54:29;;;;;;;5.40;3.00;;;14.80;97.10;;;;;;4991367;28;20413;-80
2023/01/01 03:57:24;;;;;;;3.87;2.50;;;14.70;97.30;;;;;;4986817;28;20458;-78
2023/01/01 04:00:16;;;;;;;4.43;2.93;;;14.60;97.40;;;;;;4974301;28;20447;-76
2023/01/01 04:03:03;;;;;;;5.80;2.63;;;14.60;97.60;;;;;;4989115;28;20437;-79
2023/01/01 04:05:30;;;;;;;3.93;2.83;;;14.50;97.80;;;;;;4990930;28;20424;-77
2023/01/01 04:08:00;;;;;;;3.30;2.67;;;14.50;97.90;;;;;;4990509;28;20433;-77
2023/01/01 04:10:29;;;;;;;3.50;2.60;;;14.40;98.10;;;;;;4990734;28;20437;-78
2023/01/01 04:12:56;;;;;;;4.63;2.90;;;14.40;98.00;;;;;;4958581;28;20514;-78
2023/01/01 04:15:25;;;;;;;6.70;2.87;;;14.40;98.00;;;;;;4991826;28;20424;-78
2023/01/01 04:17:51;;;;;;;2.73;2.10;;;14.40;98.00;;;;;;4991183;28;20504;-78
2023/01/01 04:20:17;;;;;;;3.87;2.77;;;14.40;97.80;;;;;;4991307;28;20448;-77
2023/01/01 04:22:43;;;;;;;3.63;2.43;;;14.30;98.10;;;;;;4977173;28;20463;-78
2023/01/01 04:25:10;;;;;;;5.03;2.63;;;14.20;98.60;;;;;;4994533;28;20443;-79
2023/01/01 04:27:37;;;;;;;3.80;3.00;;;14.20;98.70;;;;;;4977300;28;20206;-79
2023/01/01 04:30:05;;;;;;;3.60;3.30;;;14.20;99.10;;;;;;4993996;28;20433;-79
2023/01/01 04:32:30;;;;;;;6.40;3.10;;;14.00;99.20;;;;;;4977725;28;20949;-78
2023/01/01 04:34:56;;;;;;;9.03;3.27;;;13.90;99.60;;;;;;4994692;28;20437;-78
2023/01/01 04:37:21;;;;;;;3.53;2.77;;;13.80;99.60;;;;;;4995505;28;20736;-80
2023/01/01 04:39:47;;;;;;;3.07;2.80;;;14.00;99.30;;;;;;4994277;28;20756;-76
2023/01/01 04:42:13;;;;;;;3.90;2.80;;;14.00;99.30;;;;;;4978371;28;20186;-79
2023/01/01 04:44:38;;;;;;;4.60;2.97;;;13.80;99.50;;;;;;4995324;28;20991;-79
2023/01/01 04:47:04;;;;;;;5.07;4.17;;;13.80;99.90;;;;;;4992452;28;20202;-79
2023/01/01 04:49:30;;;;;;;5.83;3.47;;;13.80;99.90;;;;;;4992722;28;20676;-81
2023/01/01 04:51:55;;;;;;;4.57;3.03;;;13.70;99.90;;;;;;4976599;28;20200;-84
2023/01/01 04:54:21;;;;;;;4.70;2.13;;;13.70;99.90;;;;;;4993117;28;20189;-82
2023/01/01 04:56:46;;;;;;;2.90;2.20;;;13.80;99.60;;;;;;4960755;28;20189;-82
2023/01/01 04:59:12;;;;;;;3.10;2.33;;;13.90;99.70;;;;;;4960609;28;20646;-82
2023/01/01 05:01:38;;;;;;;3.07;2.23;;;14.00;99.40;;;;;;4976638;28;20204;-82
2023/01/01 05:04:03;;;;;;;4.00;2.63;;;14.10;99.00;;;;;;4976577;28;20197;-79
2023/01/01 05:06:29;;;;;;;4.47;2.63;;;14.10;99.10;;;;;;4992309;28;20240;-78
2023/01/01 05:08:56;;;;;;;6.57;3.00;;;14.00;99.20;;;;;;4993856;28;20204;-78
2023/01/01 05:11:24;;;;;;;4.13;2.27;;;13.90;99.50;;;;;;4992841;28;20249;-78
2023/01/01 05:13:51;;;;;;;5.80;2.60;;;13.90;99.50;;;;;;4993401;28;20421;-77
2023/01/01 05:16:19;;;;;;;4.13;2.40;;;13.90;99.50;;;;;;4993034;28;20483;-80
2023/01/01 05:18:46;;;;;;;5.13;2.10;;;13.90;99.70;;;;;;4975442;28;20427;-80
2023/01/01 05:21:14;;;;;;;5.27;2.90;;;13.90;99.80;;;;;;4991671;28;20486;-80
2023/01/01 05:23:40;;;;;;;4.73;3.00;;;13.70;99.90;;;;;;4975175;28;21181;-80
2023/01/01 05:26:14;;;;;;;3.30;2.70;;;13.50;99.90;;;;;;4992520;28;20580;-78
2023/01/01 05:28:39;;;;;;;4.80;2.90;;;13.40;99.90;;;;;;4992895;28;20463;-79
2023/01/01 05:31:08;;;;;;;4.07;2.87;;;13.50;99.90;;;;;;4975099;28;20451;-77
2023/01/01 05:33:35;;;;;;;5.00;3.13;;;13.50;99.90;;;;;;4991537;28;20197;-78
2023/01/01 05:36:01;;;;;;;6.63;2.80;;;13.40;99.90;;;;;;4992738;28;20427;-78
2023/01/01 05:38:27;;;;;;;4.97;3.30;;;13.40;99.90;;;;;;4974915;28;20434;-78
2023/01/01 05:40:52;;;;;;;5.40;2.87;;;13.40;99.90;;;;;;4991006;28;20456;-78
2023/01/01 05:43:18;;;;;;;4.47;3.30;;;13.40;99.90;;;;;;4974645;28;20200;-79
2023/01/01 05:45:44;;;;;;;5.13;2.90;;;13.50;99.90;;;;;;4990875;28;20193;-78
2023/01/01 05:48:10;;;;;;;4.77;3.03;;;13.30;99.90;;;;;;4992185;28;20196;-78
2023/01/01 05:50:36;;;;;;;4.97;3.13;;;13.60;99.90;;;;;;4992389;28;20435;-77
2023/01/01 05:53:02;;;;;;;5.00;2.87;;;13.70;99.70;;;;;;4992285;28;20424;-78
2023/01/01 05:55:29;;;;;;;6.93;2.93;;;13.60;99.70;;;;;;4992200;28;20456;-78
2023/01/01 05:57:55;;;;;;;4.77;2.77;;;13.60;99.80;;;;;;4992024;28;20181;-78
2023/01/01 06:00:21;;;;;;;2.97;2.50;;;13.60;99.70;;;;;;4974754;28;20444;-78
2023/01/01 06:02:48;;;;;;;5.27;3.47;;;13.70;99.30;;;;;;4974384;28;20224;-78
2023/01/01 06:05:14;;;;;;;4.20;2.70;;;13.90;99.40;;;;;;4992194;28;20185;-78
2023/01/01 06:07:40;;;;;;;4.63;2.63;;;13.80;99.20;;;;;;4991889;28;20478;-77
2023/01/01 06:10:05;;;;;;;9.37;3.00;;;13.90;98.80;;;;;;4992603;28;20567;-78
2023/01/01 06:12:31;;;;;;;5.63;2.70;;;13.80;99.40;;;;;;4994452;28;20548;-78
2023/01/01 06:14:57;;;;;;;4.10;2.47;;;13.70;99.60;;;;;;4993664;28;20190;-79
2023/01/01 06:17:22;;;;;;;6.10;3.33;;;13.70;99.00;;;;;;4994817;28;20197;-78
2023/01/01 06:19:48;;;;;;;6.03;2.87;;;13.70;99.20;;;;;;4976353;28;20220;-79
2023/01/01 06:22:13;;;;;;;3.63;2.73;;;13.60;99.40;;;;;;4992995;28;20674;-79
2023/01/01 06:24:39;;;;;;;4.90;3.00;;;13.50;99.80;;;;;;4993818;28;20196;-79
2023/01/01 06:27:05;;;;;;;3.43;2.73;;;13.30;99.90;;;;;;4992996;28;20216;-80
2023/01/01 06:29:31;;;;;;;7.07;2.77;;;13.50;99.90;;;;;;4994051;28;20235;-80
2023/01/01 06:31:57;;;;;;;5.70;3.30;;;13.50;99.90;;;;;;5010413;28;20461;-77
2023/01/01 06:34:22;;;;;;;7.20;2.90;;;13.40;99.90;;;;;;5011368;28;20280;-79
2023/01/01 06:36:48;;;;;;;4.60;2.83;;;13.40;99.90;;;;;;4998823;28;20231;-79
2023/01/01 06:39:13;;;;;;;5.17;3.47;;;13.20;99.90;;;;;;4992072;28;20236;-79
2023/01/01 06:41:39;;;;;;;3.40;3.00;;;13.30;99.90;;;;;;4993550;28;20192;-79
2023/01/01 06:44:05;;;;;;;6.43;3.67;;;13.30;99.90;;;;;;4974570;28;20287;-79
2023/01/01 06:46:33;;;;;;;4.67;3.53;;;13.20;99.90;;;;;;4974122;28;20236;-79
2023/01/01 06:49:08;;;;;;;7.30;3.17;;;13.00;99.90;;;;;;4992588;28;20189;-80
2023/01/01 06:51:39;;;;;;;8.53;3.40;;;13.10;99.90;;;;;;4990934;28;20431;-79
2023/01/01 06:54:06;;;;;;;5.43;3.40;;;13.10;99.90;;;;;;4991414;28;20460;-78
2023/01/01 06:56:33;;;;;;;5.57;3.27;;;13.00;99.90;;;;;;4974442;28;20444;-79
2023/01/01 06:58:58;;;;;;;10.30;4.13;;;13.00;99.90;;;;;;4974571;28;20531;-79
2023/01/01 07:01:27;;;;;;;7.30;3.63;;;12.90;99.90;;;;;;4991179;28;20535;-79
2023/01/01 07:04:01;;;;;;;5.03;3.20;;;13.00;99.90;;;;;;4973435;28;20194;-79
2023/01/01 07:06:28;;;;;;;5.87;3.47;;;13.00;99.90;;;;;;4989607;28;20460;-79
2023/01/01 07:08:54;;;;;;;5.93;3.60;;;13.10;99.90;;;;;;4973357;28;20491;-78
2023/01/01 07:11:20;;;;;;;5.67;2.73;;;13.10;99.90;;;;;;4991229;28;20443;-78
2023/01/01 07:13:46;;;;;;;4.97;3.83;;;13.00;99.90;;;;;;4972961;28;20202;-78
2023/01/01 07:16:12;;;;;;;6.10;2.97;;;13.00;99.90;;;;;;4989102;28;20432;-77
2023/01/01 07:18:37;;;;;;;8.50;4.50;;;13.00;99.90;;;;;;4991008;28;20279;-78
2023/01/01 07:21:04;;;;;;;8.10;4.07;;;13.00;99.90;;;;;;4973027;28;20449;-78
2023/01/01 07:23:34;;;;;;;12.33;3.70;;;13.00;99.90;;;;;;4990639;28;20436;-78
2023/01/01 07:26:00;;;;;;;5.03;3.30;;;12.90;99.90;;;;;;4972768;28;20474;-78
2023/01/01 07:28:26;;;;;;;8.93;3.77;;;12.80;99.90;;;;;;4990636;28;20419;-78
2023/01/01 07:30:53;;;;;;;5.13;3.47;;;12.80;99.90;;;;;;4990727;28;20521;-78
2023/01/01 07:33:21;;;;;;;7.07;3.97;;;12.80;99.90;;;;;;4989397;28;20444;-78
2023/01/01 07:35:47;;;;;;;4.50;3.33;;;12.80;99.90;;;;;;4973513;28;20440;-79
2023/01/01 07:38:13;;;;;;;4.70;3.20;;;12.90;99.90;;;;;;4991943;28;20473;-78
2023/01/01 07:40:40;;;;;;;5.53;3.30;;;12.90;99.90;;;;;;4973245;28;20356;-80
2023/01/01 07:43:06;;;;;;;5.57;3.20;;;12.80;99.90;;;;;;4973272;28;20428;-80
2023/01/01 07:45:32;;;;;;;7.70;3.53;;;12.90;99.90;;;;;;4972712;28;20481;-79
2023/01/01 07:47:58;;;;;;;6.53;3.30;;;12.90;99.90;;;;;;4972595;28;20435;-80
2023/01/01 07:50:26;;;;;;;4.30;3.57;;;13.00;99.90;;;;;;4990095;28;21249;-79
2023/01/01 07:52:52;;;;;;;14.83;3.30;;;13.00;99.90;;;;;;4990087;28;20452;-80
2023/01/01 07:55:19;;;;;;;6.33;2.97;;;13.10;99.90;;;;;;4990067;28;20457;-79
2023/01/01 07:57:45;;;;;;;5.43;3.10;;;13.30;99.90;;;;;;4988138;28;20231;-79
2023/01/01 08:00:14;;;;;;;8.30;3.00;;;13.20;99.90;;;;;;4972498;28;20938;-79
2023/01/01 08:02:40;;;;;;;6.30;3.60;;;13.20;99.90;;;;;;4972790;28;20434;-78
2023/01/01 08:05:06;;;;;;;8.87;3.73;;;13.30;99.90;;;;;;4988562;28;20429;-77
2023/01/01 08:07:32;;;;;;;5.00;2.90;;;13.30;99.90;;;;;;4989060;28;20951;-79
2023/01/01 08:09:57;;;;;;;4.60;3.10;;;13.50;99.90;;;;;;4972184;28;20457;-78
2023/01/01 08:12:24;;;;;;;6.33;3.10;;;13.60;99.90;;;;;;4972069;28;20188;-78
2023/01/01 08:14:49;;;;;;;10.00;3.53;;;13.90;99.90;;;;;;4972407;28;20190;-79
2023/01/01 08:17:15;;;;;;;6.27;3.77;;;14.00;99.90;;;;;;4989789;28;20528;-79
2023/01/01 08:19:41;;;;;;;3.57;2.60;;;14.20;99.90;;;;;;4988360;28;20210;-79
2023/01/01 08:22:06;;;;;;;5.80;2.70;;;14.30;99.90;;;;;;4972348;28;20215;-78
2023/01/01 08:24:32;;;;;;;6.00;3.33;;;14.40;99.90;;;;;;4972250;28;20189;-78
2023/01/01 08:26:57;;;;;;;4.87;2.83;;;14.60;99.50;;;;;;4989618;28;20301;-78
2023/01/01 08:29:23;;;;;;;4.17;2.90;;;14.60;99.00;;;;;;4955987;28;20205;-79
2023/01/01 08:31:49;;;;;;;4.53;2.90;;;14.90;98.90;;;;;;4988424;28;20866;-79
2023/01/01 08:34:15;;;;;;;2.93;2.60;;;15.20;98.30;;;;;;4972269;28;20182;-79
2023/01/01 08:36:40;;;;;;;5.20;2.57;;;15.30;96.70;;;;;;4990121;28;21031;-79
2023/01/01 08:39:07;;;;;;;4.53;2.57;;;15.40;96.20;;;;;;4973455;28;20186;-79
2023/01/01 08:41:33;;;;;;;6.07;3.20;;;15.30;97.00;;;;;;4972738;28;20722;-79
2023/01/01 08:43:58;;;;;;;6.53;2.80;;;14.90;97.60;;;;;;4972958;28;20429;-79
2023/01/01 08:46:24;;;;;;;10.70;2.90;;;14.60;98.10;;;;;;4988984;28;20205;-79
2023/01/01 08:48:50;;;;;;;4.53;2.70;;;14.50;98.30;;;;;;4989483;28;20731;-79
2023/01/01 08:51:16;;;;;;;6.70;3.20;;;14.40;98.40;;;;;;4989215;28;20201;-78
2023/01/01 08:53:41;;;;;;;5.83;2.60;;;14.40;98.30;;;;;;4990428;28;20182;-79
2023/01/01 08:56:09;;;;;;;5.97;2.60;;;14.40;98.40;;;;;;4972749;28;20429;-79
2023/01/01 08:58:36;;;;;;;6.10;2.67;;;14.40;97.90;;;;;;4972677;28;20194;-78
2023/01/01 09:01:02;;;;;;;5.03;2.90;;;14.50;97.90;;;;;;4988739;28;20450;-79
2023/01/01 09:03:27;;;;;;;3.57;2.00;;;14.60;97.70;;;;;;4989646;28;21022;-79
2023/01/01 09:05:53;;;;;;;6.60;2.70;;;14.70;97.50;;;;;;4989586;28;21271;-79
2023/01/01 09:08:20;;;;;;;4.50;2.00;;;14.90;97.30;;;;;;4990793;28;20195;-79
2023/01/01 09:10:46;;;;;;;4.60;2.47;;;15.00;96.20;;;;;;4993224;28;20294;-78
2023/01/01 09:13:14;;;;;;;6.23;3.40;;;15.10;96.60;;;;;;4991827;28;21062;-79
2023/01/01 09:15:41;;;;;;;3.40;2.63;;;14.80;96.90;;;;;;4993125;28;20459;-79
2023/01/01 09:18:07;;;;;;;4.50;2.47;;;14.80;97.50;;;;;;4991878;28;20413;-79
2023/01/01 09:20:34;;;;;;;6.10;3.20;;;14.70;98.00;;;;;;4993240;28;20869;-78
2023/01/01 09:22:59;;;;;;;3.23;2.60;;;14.50;98.60;;;;;;4993211;28;20413;-78
2023/01/01 09:25:25;;;;;;;4.07;2.80;;;14.40;98.80;;;;;;4993528;28;20476;-79
2023/01/01 09:28:01;;;;;;;3.60;3.10;;;14.40;99.10;;;;;;4993509;28;20198;-77
2023/01/01 09:30:27;;;;;;;5.13;3.20;;;14.40;99.90;;;;;;4993215;28;20210;-76
2023/01/01 09:32:53;;;;;;;4.43;2.60;;;14.40;99.40;;;;;;4992971;28;20475;-75
2023/01/01 09:35:19;;;;;;;8.83;2.93;;;14.60;99.10;;;;;;4993671;28;20424;-76
2023/01/01 09:37:44;;;;;;;8.13;3.00;;;14.60;98.30;;;;;;4994359;28;20268;-77
2023/01/01 09:40:56;;;;;;;4.37;3.00;;;14.70;98.90;;;;;;4992093;28;20220;-78
2023/01/01 09:43:51;;;;;;;4.47;2.90;;;14.70;96.60;;;;;;4990341;28;20193;-78
2023/01/01 09:46:17;;;;;;;4.70;2.23;;;15.10;96.80;;;;;;4967453;28;20462;-77
2023/01/01 09:48:58;;;;;;;9.10;2.70;;;15.50;96.60;;;;;;4992941;28;20409;-77
2023/01/01 09:51:27;;;;;;;5.20;2.30;;;15.90;94.70;;;;;;4992110;28;20869;-78
2023/01/01 09:53:58;;;;;;;6.17;2.73;;;16.10;93.80;;;;;;4993661;28;20436;-77
2023/01/01 09:56:26;;;;;;;7.10;2.53;;;16.10;93.90;;;;;;4975239;28;20446;-76
2023/01/01 09:58:55;;;;;;;5.30;2.73;;;16.30;93.60;;;;;;4992092;28;20439;-77
2023/01/01 10:01:24;;;;;;;8.30;2.30;;;16.30;93.40;;;;;;4992615;28;20442;-77
2023/01/01 10:04:15;;;;;;;5.20;3.47;;;16.50;93.50;;;;;;4994833;28;20932;-77
2023/01/01 10:07:11;;;;;;;3.07;2.27;;;16.30;93.00;;;;;;4992996;28;20460;-76
2023/01/01 10:09:43;;;;;;;11.57;2.43;;;16.30;92.20;;;;;;4991169;28;20880;-77
2023/01/01 10:12:11;;;;;;;4.40;2.80;;;16.40;92.50;;;;;;4993760;28;20418;-78
2023/01/01 10:14:42;;;;;;;3.17;2.23;;;16.40;91.40;;;;;;4995238;28;20518;-77
2023/01/01 10:17:31;;;;;;;2.80;2.30;;;16.50;91.70;;;;;;4993402;28;20434;-77
2023/01/01 10:20:01;;;;;;;11.63;2.50;;;16.80;91.30;;;;;;4973660;28;20448;-77
2023/01/01 10:22:40;;;;;;;10.30;3.00;;;17.30;91.40;;;;;;4992230;28;20422;-77
2023/01/01 10:25:17;;;;;;;7.97;2.30;;;18.40;90.30;;;;;;4974465;28;20421;-77
2023/01/01 10:27:55;;;;;;;4.07;2.53;;;19.50;83.60;;;;;;4991482;28;20449;-77
2023/01/01 10:30:22;;;;;;;24.30;13.97;;;20.20;79.90;;;;;;4993817;28;21003;-77
2023/01/01 10:32:53;;;;;;;5.00;2.60;;;21.00;76.50;;;;;;4991300;28;20802;-77
2023/01/01 10:35:21;;;;;;;7.33;2.80;;;21.60;74.00;;;;;;4991848;28;20548;-76
2023/01/01 10:37:48;;;;;;;3.60;2.30;;;21.60;70.30;;;;;;4991877;28;20425;-77
2023/01/01 10:40:23;;;;;;;6.10;2.57;;;21.80;68.70;;;;;;4991878;28;20443;-76
2023/01/01 10:42:50;;;;;;;4.43;2.17;;;21.80;69.10;;;;;;4974524;28;20425;-77
2023/01/01 10:45:45;;;;;;;4.83;2.50;;;22.90;69.20;;;;;;4991003;28;20434;-76
2023/01/01 10:48:20;;;;;;;7.40;2.47;;;23.90;64.50;;;;;;4992467;28;20825;-78
2023/01/01 10:50:45;;;;;;;8.33;2.40;;;24.30;61.80;;;;;;4992395;28;20446;-77
2023/01/01 10:53:25;;;;;;;2.67;2.10;;;24.40;62.70;;;;;;4990625;28;20420;-76
2023/01/01 10:56:05;;;;;;;5.83;2.50;;;24.50;59.30;;;;;;4990646;28;20177;-76
2023/01/01 10:58:31;;;;;;;7.50;3.00;;;24.70;58.70;;;;;;4989163;28;20945;-76
2023/01/01 11:00:58;;;;;;;6.80;2.90;;;25.30;59.00;;;;;;4990431;28;20440;-77
2023/01/01 11:03:24;;;;;;;4.63;2.30;;;25.80;58.00;;;;;;4990664;28;20246;-76
2023/01/01 11:06:10;;;;;;;5.57;2.30;;;26.30;55.80;;;;;;4989839;28;20412;-76
2023/01/01 11:08:39;;;;;;;9.13;3.07;;;26.30;55.00;;;;;;4988132;28;20180;-76
2023/01/01 11:11:05;;;;;;;4.70;2.60;;;26.30;55.50;;;;;;4987826;28;20816;-76
2023/01/01 11:13:32;;;;;;;5.20;2.30;;;27.00;52.90;;;;;;4987538;28;20427;-76
2023/01/01 11:15:58;;;;;;;7.50;2.47;;;26.80;50.90;;;;;;4988903;28;20185;-76
2023/01/01 11:18:34;;;;;;;4.00;2.40;;;26.60;52.40;;;;;;4971322;28;20584;-76
2023/01/01 11:21:03;;;;;;;4.83;2.63;;;26.80;51.50;;;;;;4988969;28;20425;-75
2023/01/01 11:23:31;;;;;;;10.60;2.70;;;27.20;50.80;;;;;;4988671;28;20429;-76
2023/01/01 11:26:23;;;;;;;6.13;2.37;;;27.80;51.20;;;;;;4988222;28;20429;-77
2023/01/01 11:29:16;;;;;;;9.40;2.37;;;27.50;49.70;;;;;;4988561;28;20447;-75
2023/01/01 11:31:45;;;;;;;4.97;2.50;;;27.30;49.90;;;;;;4987648;28;20433;-75
2023/01/01 11:34:38;;;;;;;9.60;2.70;;;26.50;49.70;;;;;;4988626;28;20439;-74
2023/01/01 11:37:09;;;;;;;7.57;3.27;;;25.30;52.20;;;;;;4968557;28;20440;-75
2023/01/01 11:39:36;;;;;;;4.77;2.20;;;25.00;52.70;;;;;;4990311;28;20576;-76
2023/01/01 11:42:03;;;;;;;6.30;2.50;;;25.30;52.30;;;;;;4988973;28;20459;-75
2023/01/01 11:44:34;;;;;;;8.13;2.67;;;24.70;52.40;;;;;;4972199;28;20440;-76
2023/01/01 11:47:03;;;;;;;4.30;2.37;;;24.60;52.40;;;;;;4989706;28;20549;-76
2023/01/01 11:49:30;;;;;;;4.13;2.30;;;25.00;52.20;;;;;;4988689;28;20445;-79
2023/01/01 11:51:56;;;;;;;9.60;3.00;;;25.10;51.70;;;;;;4989373;28;20433;-78
2023/01/01 11:54:34;;;;;;;11.03;3.03;;;25.00;51.30;;;;;;4991696;28;20449;-78
2023/01/01 11:57:22;;;;;;;5.93;2.70;;;24.90;51.50;;;;;;4972377;28;20444;-78
2023/01/01 12:00:15;;;;;;;2.60;1.70;;;24.20;51.00;;;;;;4972142;28;20555;-77
2023/01/01 12:02:51;;;;;;;4.07;2.30;;;24.50;53.20;;;;;;4987870;28;20436;-77
2023/01/01 12:05:35;;;;;;;7.00;2.70;;;24.50;53.10;;;;;;4989982;28;20559;-77
2023/01/01 12:08:03;;;;;;;5.30;2.53;;;23.40;52.80;;;;;;4989023;28;20550;-77
2023/01/01 12:10:43;;;;;;;5.10;2.43;;;22.90;54.30;;;;;;4989489;28;20498;-77
2023/01/01 12:13:21;;;;;;;5.30;2.60;;;22.30;54.90;;;;;;4989547;28;20411;-77
2023/01/01 12:15:58;;;;;;;7.10;3.00;;;21.80;56.50;;;;;;4988339;28;20425;-76
2023/01/01 12:18:51;;;;;;;6.40;2.50;;;21.50;57.60;;;;;;4971926;28;20456;-77
2023/01/01 12:21:23;;;;;;;4.90;2.50;;;21.30;57.50;;;;;;4989318;28;20445;-76
2023/01/01 12:23:48;;;;;;;3.10;2.00;;;20.80;58.50;;;;;;4989576;28;20499;-77
2023/01/01 12:26:42;;;;;;;4.73;2.20;;;20.50;59.40;;;;;;4972210;28;20477;-76
2023/01/01 12:29:07;;;;;;;5.40;2.60;;;20.30;59.50;;;;;;4989205;28;20187;-76
2023/01/01 12:32:13;;;;;;;3.63;2.00;;;20.10;59.20;;;;;;4989037;28;20414;-76
2023/01/01 12:34:40;;;;;;;8.67;2.93;;;20.00;60.70;;;;;;4972113;28;20189;-75
2023/01/01 12:37:35;;;;;;;5.40;2.20;;;19.80;65.40;;;;;;4989642;28;20412;-76
2023/01/01 12:40:23;;;;;;;4.93;2.70;;;19.30;67.20;;;;;;4989260;28;20444;-76
2023/01/01 12:43:14;;;;;;;5.30;2.47;;;19.20;69.30;;;;;;4989504;28;20517;-76
2023/01/01 12:46:00;;;;;;;3.20;2.00;;;19.10;69.30;;;;;;4993232;28;20747;-76
2023/01/01 12:48:47;;;;;;;3.73;2.20;;;18.90;71.30;;;;;;4992750;28;20454;-76
2023/01/01 12:51:13;;;;;;;19.03;3.63;;;18.80;70.90;;;;;;4992959;28;20522;-75
2023/01/01 12:54:15;;;;;;;105.00;6.27;;;18.50;71.30;;;;;;4992923;28;20780;-75
2023/01/01 12:57:05;;;;;;;41.27;4.57;;;18.40;72.80;;;;;;4991370;28;20219;-76
2023/01/01 12:59:40;;;;;;;5.40;2.33;;;18.30;72.70;;;;;;4992656;28;20428;-76
2023/01/01 13:02:17;;;;;;;4.67;2.40;;;18.40;73.50;;;;;;4993022;28;20417;-77
2023/01/01 13:04:45;;;;;;;7.77;1.97;;;18.30;73.80;;;;;;4993620;28;20427;-76
2023/01/01 13:07:12;;;;;;;4.90;2.53;;;18.30;73.20;;;;;;4993166;28;20464;-76